createdAt,value
2022-08-22T00:01:20.363Z,4.05
2022-08-22T00:02:53.439Z,3.07
2022-08-22T00:02:59.905Z,3.75
2022-08-22T00:04:02.779Z,3.85
2022-08-22T00:06:49.280Z,3.83
2022-08-22T00:09:25.014Z,4.50
2022-08-22T00:12:00.941Z,4.38
2022-08-22T00:14:37.399Z,4.88
2022-08-22T00:17:19.810Z,5.03
2022-08-22T00:19:57.922Z,5.15
2022-08-22T00:22:34.955Z,4.43
2022-08-22T00:25:25.615Z,5.03
2022-08-22T00:27:56.820Z,4.60
2022-08-22T00:30:24.748Z,4.60
2022-08-22T00:32:56.869Z,5.00
2022-08-22T00:35:32.311Z,4.50
2022-08-22T00:38:05.936Z,4.63
2022-08-22T00:40:52.832Z,4.45
2022-08-22T00:43:56.782Z,4.47
2022-08-22T00:46:41.376Z,4.47
2022-08-22T00:49:18.864Z,4.80
2022-08-22T00:52:27.356Z,4.78
2022-08-22T00:55:28.007Z,4.93
2022-08-22T00:58:29.160Z,4.20
2022-08-22T01:01:03.093Z,4.53
2022-08-22T01:04:20.670Z,4.68
2022-08-22T01:06:58.762Z,4.80
2022-08-22T01:09:39.707Z,4.32
2022-08-22T01:12:29.103Z,4.47
2022-08-22T01:15:00.118Z,4.35
2022-08-22T01:17:54.027Z,4.57
2022-08-22T01:20:58.997Z,4.93
2022-08-22T01:23:58.119Z,5.25
2022-08-22T01:27:10.637Z,4.43
2022-08-22T01:30:11.986Z,5.15
2022-08-22T01:33:16.316Z,4.80
2022-08-22T01:36:10.594Z,4.40
2022-08-22T01:38:59.642Z,4.20
2022-08-22T01:42:05.269Z,4.20
2022-08-22T01:44:58.701Z,4.20
2022-08-22T01:47:29.778Z,3.92
2022-08-22T01:50:17.046Z,4.43
2022-08-22T01:52:49.139Z,4.20
2022-08-22T01:55:25.200Z,4.68
2022-08-22T01:57:54.431Z,4.32
2022-08-22T02:00:35.312Z,4.20
2022-08-22T02:03:22.018Z,4.25
2022-08-22T02:05:53.082Z,4.05
2022-08-22T02:08:30.321Z,4.20
2022-08-22T02:11:02.791Z,3.40
2022-08-22T02:13:46.662Z,3.80
2022-08-22T02:16:20.105Z,4.07
2022-08-22T02:18:59.729Z,4.32
2022-08-22T02:21:32.401Z,4.32
2022-08-22T02:24:04.801Z,4.37
2022-08-22T02:26:43.881Z,3.80
2022-08-22T02:29:14.286Z,4.63
2022-08-22T02:31:45.082Z,4.43
2022-08-22T02:34:28.528Z,4.18
2022-08-22T02:37:04.586Z,4.75
2022-08-22T02:39:37.445Z,4.63
2022-08-22T02:42:17.111Z,4.30
2022-08-22T02:44:52.800Z,4.57
2022-08-22T02:47:29.335Z,4.93
2022-08-22T02:50:05.481Z,4.60
2022-08-22T02:52:45.321Z,4.80
2022-08-22T02:55:18.277Z,5.13
2022-08-22T02:57:53.373Z,4.85
2022-08-22T03:00:31.918Z,5.00
2022-08-22T03:03:04.366Z,5.22
2022-08-22T03:05:50.065Z,5.40
2022-08-22T03:08:22.995Z,4.97
2022-08-22T03:11:01.238Z,4.57
2022-08-22T03:13:40.186Z,5.13
2022-08-22T03:16:18.353Z,5.22
2022-08-22T03:18:53.555Z,4.78
2022-08-22T03:21:27.871Z,4.55
2022-08-22T03:23:58.079Z,4.43
2022-08-22T03:26:32.528Z,4.88
2022-08-22T03:29:04.615Z,4.53
2022-08-22T03:31:32.539Z,4.57
2022-08-22T03:34:20.073Z,4.80
2022-08-22T03:36:58.219Z,5.07
2022-08-22T03:39:48.576Z,4.50
2022-08-22T03:42:47.246Z,5.07
2022-08-22T03:45:46.886Z,4.50
2022-08-22T03:48:37.666Z,6.25
2022-08-22T03:51:20.411Z,4.60
2022-08-22T03:54:10.482Z,4.65
2022-08-22T03:57:30.184Z,4.30
2022-08-22T04:00:12.858Z,4.85
2022-08-22T04:03:05.022Z,4.88
2022-08-22T04:06:06.817Z,4.90
2022-08-22T04:08:57.776Z,4.93
2022-08-22T04:12:06.767Z,4.95
2022-08-22T04:15:05.635Z,4.97
2022-08-22T04:17:52.571Z,4.75
2022-08-22T04:20:32.479Z,5.00
2022-08-22T04:23:18.270Z,4.68
2022-08-22T04:25:50.874Z,4.38
2022-08-22T04:28:36.448Z,4.13
2022-08-22T04:31:08.796Z,4.45
2022-08-22T04:33:40.605Z,4.15
2022-08-22T04:36:15.931Z,3.67
2022-08-22T04:38:48.302Z,4.32
2022-08-22T04:41:20.091Z,4.47
2022-08-22T04:43:52.786Z,4.15
2022-08-22T04:46:32.105Z,4.60
2022-08-22T04:49:11.170Z,4.65
2022-08-22T04:51:43.173Z,4.53
2022-08-22T04:54:32.951Z,5.30
2022-08-22T04:57:14.326Z,5.03
2022-08-22T04:59:41.782Z,5.32
2022-08-22T05:02:11.524Z,4.57
2022-08-22T05:04:43.601Z,4.65
2022-08-22T05:07:14.527Z,4.35
2022-08-22T05:09:45.105Z,4.22
2022-08-22T05:12:16.990Z,5.00
2022-08-22T05:14:47.442Z,4.25
2022-08-22T05:17:17.502Z,3.50
2022-08-22T05:19:50.510Z,4.40
2022-08-22T05:22:20.811Z,4.45
2022-08-22T05:24:51.503Z,3.40
2022-08-22T05:27:22.838Z,4.40
2022-08-22T05:29:52.334Z,4.22
2022-08-22T05:32:25.781Z,3.83
2022-08-22T05:37:37.977Z,4.50
2022-08-22T05:40:05.819Z,3.97
2022-08-22T05:42:34.934Z,4.97
2022-08-22T05:45:05.698Z,4.30
2022-08-22T05:47:41.002Z,4.68
2022-08-22T05:50:13.910Z,4.82
2022-08-22T05:52:57.728Z,5.10
2022-08-22T05:58:12.433Z,5.55
2022-08-22T06:00:42.706Z,5.68
2022-08-22T06:03:16.624Z,5.72
2022-08-22T06:05:50.110Z,5.65
2022-08-22T06:10:49.658Z,5.60
2022-08-22T06:13:24.401Z,5.55
2022-08-22T06:15:59.028Z,5.90
2022-08-22T06:18:27.513Z,5.60
2022-08-22T06:20:58.466Z,5.28
2022-08-22T06:23:28.457Z,6.32
2022-08-22T06:26:00.132Z,5.57
2022-08-22T06:28:32.188Z,4.75
2022-08-22T06:31:01.329Z,5.70
2022-08-22T06:33:31.168Z,5.15
2022-08-22T06:36:03.002Z,5.32
2022-08-22T06:38:31.886Z,5.63
2022-08-22T06:41:02.427Z,5.47
2022-08-22T06:43:43.157Z,5.47
2022-08-22T06:46:13.085Z,5.57
2022-08-22T06:48:40.264Z,5.20
2022-08-22T06:51:08.775Z,5.68
2022-08-22T06:53:40.283Z,5.13
2022-08-22T06:56:20.112Z,5.40
2022-08-22T06:58:50.632Z,5.68
2022-08-22T07:01:21.821Z,5.70
2022-08-22T07:03:52.346Z,5.85
2022-08-22T07:06:36.164Z,5.43
2022-08-22T07:09:06.665Z,5.45
2022-08-22T07:11:38.615Z,5.97
2022-08-22T07:14:07.779Z,5.72
2022-08-22T07:16:46.622Z,6.45
2022-08-22T07:19:23.696Z,6.18
2022-08-22T07:21:51.761Z,6.07
2022-08-22T07:24:22.638Z,6.15
2022-08-22T07:27:02.809Z,5.15
2022-08-22T07:29:42.336Z,5.75
2022-08-22T07:32:15.378Z,5.68
2022-08-22T07:34:57.373Z,6.05
2022-08-22T07:37:36.812Z,5.40
2022-08-22T07:40:16.337Z,5.10
2022-08-22T07:42:47.718Z,5.10
2022-08-22T07:45:17.644Z,4.63
2022-08-22T07:48:05.816Z,4.70
2022-08-22T07:50:37.144Z,4.20
2022-08-22T07:53:15.586Z,4.63
2022-08-22T07:55:49.313Z,4.32
2022-08-22T07:58:18.085Z,4.13
2022-08-22T08:00:48.063Z,3.97
2022-08-22T08:03:15.265Z,3.63
2022-08-22T08:05:44.760Z,3.58
2022-08-22T08:08:20.423Z,3.13
2022-08-22T08:10:49.309Z,4.13
2022-08-22T08:13:24.873Z,3.88
2022-08-22T08:15:51.904Z,3.75
2022-08-22T08:18:21.871Z,2.63
2022-08-22T08:20:52.023Z,3.60
2022-08-22T08:23:23.807Z,3.72
2022-08-22T08:25:59.501Z,3.42
2022-08-22T08:28:26.514Z,3.47
2022-08-22T08:30:56.095Z,3.25
2022-08-22T08:33:26.931Z,2.80
2022-08-22T08:36:02.995Z,2.92
2022-08-22T08:38:36.213Z,2.85
2022-08-22T08:41:44.278Z,2.43
2022-08-22T08:44:26.330Z,2.30
2022-08-22T08:47:16.429Z,2.50
2022-08-22T08:49:59.303Z,2.50
2022-08-22T08:52:55.388Z,2.13
2022-08-22T08:55:37.269Z,2.60
2022-08-22T08:58:20.771Z,2.53
2022-08-22T09:00:56.137Z,2.80
2022-08-22T09:04:07.280Z,2.60
2022-08-22T09:07:01.211Z,2.67
2022-08-22T09:09:42.865Z,2.70
2022-08-22T09:12:56.191Z,3.08
2022-08-22T09:16:04.420Z,2.65
2022-08-22T09:18:59.567Z,2.35
2022-08-22T09:22:05.063Z,3.05
2022-08-22T09:24:50.741Z,2.78
2022-08-22T09:27:27.757Z,2.50
2022-08-22T09:30:04.653Z,2.47
2022-08-22T09:32:45.789Z,2.35
2022-08-22T09:35:22.552Z,2.22
2022-08-22T09:38:21.359Z,2.10
2022-08-22T09:40:54.550Z,2.40
2022-08-22T09:43:30.715Z,2.28
2022-08-22T09:46:13.966Z,2.03
2022-08-22T09:48:50.712Z,2.15
2022-08-22T09:51:31.948Z,2.20
2022-08-22T09:54:31.650Z,2.10
2022-08-22T09:57:16.229Z,2.08
2022-08-22T09:59:54.797Z,2.10
2022-08-22T10:02:32.073Z,2.30
2022-08-22T10:05:09.345Z,1.98
2022-08-22T10:08:00.329Z,2.08
2022-08-22T10:10:43.391Z,2.25
2022-08-22T10:13:23.570Z,1.70
2022-08-22T10:15:57.299Z,1.88
2022-08-22T10:18:35.974Z,2.20
2022-08-22T10:21:10.728Z,1.88
2022-08-22T10:23:42.736Z,1.65
2022-08-22T10:26:27.448Z,2.00
2022-08-22T10:29:01.310Z,2.13
2022-08-22T10:31:42.789Z,1.73
2022-08-22T10:34:28.954Z,1.98
2022-08-22T10:37:10.526Z,2.50
2022-08-22T10:39:44.536Z,1.90
2022-08-22T10:42:25.228Z,2.08
2022-08-22T10:45:14.296Z,1.75
2022-08-22T10:48:21.803Z,1.48
2022-08-22T10:50:55.782Z,2.05
2022-08-22T10:53:29.010Z,1.60
2022-08-22T10:56:04.667Z,1.20
2022-08-22T10:58:38.518Z,1.70
2022-08-22T11:01:37.662Z,1.90
2022-08-22T11:04:05.498Z,1.77
2022-08-22T11:06:44.775Z,2.00
2022-08-22T11:09:25.887Z,1.50
2022-08-22T11:12:01.446Z,1.75
2022-08-22T11:14:56.049Z,1.80
2022-08-22T11:17:40.716Z,1.50
2022-08-22T11:20:19.673Z,1.50
2022-08-22T11:23:04.830Z,1.77
2022-08-22T11:25:44.254Z,1.55
2022-08-22T11:28:31.213Z,1.58
2022-08-22T11:31:07.247Z,1.50
2022-08-22T11:33:47.333Z,1.90
2022-08-22T11:36:31.177Z,1.33
2022-08-22T11:39:18.245Z,1.85
2022-08-22T11:41:53.327Z,1.92
2022-08-22T11:44:27.081Z,1.70
2022-08-22T11:46:55.482Z,1.80
2022-08-22T11:49:44.455Z,1.73
2022-08-22T11:52:20.319Z,1.73
2022-08-22T11:55:11.470Z,1.38
2022-08-22T11:57:44.344Z,1.60
2022-08-22T12:00:34.432Z,1.42
2022-08-22T12:03:36.376Z,1.58
2022-08-22T12:06:20.873Z,1.30
2022-08-22T12:09:26.575Z,1.52
2022-08-22T12:12:29.816Z,1.40
2022-08-22T12:15:03.894Z,1.33
2022-08-22T12:18:08.883Z,1.70
2022-08-22T12:20:52.402Z,1.50
2022-08-22T12:26:26.072Z,1.40
2022-08-22T12:29:16.899Z,1.45
2022-08-22T12:32:20.632Z,1.80
2022-08-22T12:35:13.719Z,1.67
2022-08-22T12:37:52.842Z,1.55
2022-08-22T12:40:29.502Z,1.42
2022-08-22T12:43:32.231Z,1.70
2022-08-22T12:46:16.508Z,1.65
2022-08-22T12:48:58.962Z,1.48
2022-08-22T12:51:31.490Z,1.77
2022-08-22T12:54:51.546Z,1.70
2022-08-22T12:57:30.672Z,1.42
2022-08-22T13:00:07.181Z,1.30
2022-08-22T13:02:36.787Z,1.42
2022-08-22T13:05:10.944Z,1.80
2022-08-22T13:07:41.455Z,1.50
2022-08-22T13:10:31.198Z,1.52
2022-08-22T13:13:00.246Z,1.80
2022-08-22T13:15:34.314Z,1.48
2022-08-22T13:18:28.715Z,1.80
2022-08-22T13:20:57.714Z,1.25
2022-08-22T13:23:27.639Z,1.55
2022-08-22T13:26:00.895Z,1.17
2022-08-22T13:28:30.653Z,1.38
2022-08-22T13:30:58.569Z,1.60
2022-08-22T13:33:30.632Z,1.40
2022-08-22T13:36:02.246Z,1.70
2022-08-22T13:38:38.537Z,1.25
2022-08-22T13:41:19.411Z,1.77
2022-08-22T13:44:00.637Z,1.83
2022-08-22T13:46:30.311Z,1.30
2022-08-22T13:49:07.520Z,1.45
2022-08-22T13:51:40.520Z,1.80
2022-08-22T13:54:36.447Z,1.88
2022-08-22T13:57:12.913Z,1.60
2022-08-22T13:59:51.700Z,1.35
2022-08-22T14:02:37.248Z,1.60
2022-08-22T14:07:38.488Z,1.50
2022-08-22T14:10:12.510Z,1.35
2022-08-22T14:13:05.920Z,1.70
2022-08-22T14:15:44.631Z,1.60
2022-08-22T14:18:19.639Z,1.65
2022-08-22T14:20:48.942Z,1.60
2022-08-22T14:23:23.970Z,1.52
2022-08-22T14:25:54.010Z,1.88
2022-08-22T14:28:27.345Z,1.80
2022-08-22T14:31:00.654Z,1.50
2022-08-22T14:36:02.023Z,1.58
2022-08-22T14:38:35.451Z,2.17
2022-08-22T14:43:51.915Z,2.00
2022-08-22T14:46:25.776Z,1.65
2022-08-22T14:49:13.341Z,1.95
2022-08-22T14:51:48.036Z,2.22
2022-08-22T14:54:21.920Z,1.80
2022-08-22T14:56:51.431Z,1.95
2022-08-22T14:59:32.282Z,1.70
2022-08-22T15:02:02.722Z,1.90
2022-08-22T15:04:35.439Z,2.20
2022-08-22T15:07:03.818Z,2.38
2022-08-22T15:09:33.691Z,1.90
2022-08-22T15:12:03.525Z,1.73
2022-08-22T15:14:44.216Z,1.80
2022-08-22T15:17:38.752Z,1.77
2022-08-22T15:20:10.860Z,1.88
2022-08-22T15:22:41.391Z,1.70
2022-08-22T15:25:16.679Z,1.83
2022-08-22T15:27:49.894Z,2.08
2022-08-22T15:30:21.103Z,1.80
2022-08-22T15:32:48.659Z,1.80
2022-08-22T15:35:31.035Z,2.08
2022-08-22T15:38:01.437Z,2.05
2022-08-22T15:40:33.820Z,2.17
2022-08-22T15:43:16.555Z,2.08
2022-08-22T15:45:49.440Z,2.03
2022-08-22T15:48:29.446Z,1.70
2022-08-22T15:50:59.266Z,1.60
2022-08-22T15:53:33.611Z,2.10
2022-08-22T15:56:26.728Z,1.48
2022-08-22T15:59:31.243Z,1.77
2022-08-22T16:02:25.777Z,2.20
2022-08-22T16:05:18.963Z,1.42
2022-08-22T16:07:48.529Z,1.90
2022-08-22T16:10:31.978Z,1.50
2022-08-22T16:13:37.950Z,1.65
2022-08-22T16:16:07.966Z,1.48
2022-08-22T16:19:08.584Z,1.90
2022-08-22T16:22:21.254Z,1.50
2022-08-22T16:25:10.166Z,1.67
2022-08-22T16:27:52.183Z,1.63
2022-08-22T16:30:32.311Z,2.10
2022-08-22T16:32:59.750Z,3.55
2022-08-22T16:36:03.830Z,1.67
2022-08-22T16:41:04.525Z,1.75
2022-08-22T16:43:32.947Z,1.92
2022-08-22T16:46:01.282Z,2.13
2022-08-22T16:48:34.103Z,2.22
2022-08-22T16:51:13.796Z,2.20
2022-08-22T16:54:07.605Z,1.98
2022-08-22T16:56:44.516Z,1.90
2022-08-22T16:59:38.356Z,1.92
2022-08-22T17:02:25.128Z,2.03
2022-08-22T17:05:04.308Z,1.88
2022-08-22T17:07:43.423Z,1.75
2022-08-22T17:10:48.572Z,1.90
2022-08-22T17:13:29.714Z,2.05
2022-08-22T17:16:15.019Z,2.08
2022-08-22T17:19:06.309Z,2.03
2022-08-22T17:21:50.667Z,2.65
2022-08-22T17:24:31.996Z,1.98
2022-08-22T17:27:07.511Z,2.25
2022-08-22T17:29:46.666Z,2.50
2022-08-22T17:32:20.945Z,2.03
2022-08-22T17:34:57.834Z,3.08
2022-08-22T17:37:36.075Z,2.70
2022-08-22T17:40:37.234Z,2.42
2022-08-22T17:43:18.580Z,1.90
2022-08-22T17:46:12.824Z,2.47
2022-08-22T17:48:45.972Z,2.00
2022-08-22T17:51:25.312Z,2.13
2022-08-22T17:53:59.171Z,2.50
2022-08-22T17:56:30.666Z,2.80
2022-08-22T17:59:02.588Z,2.10
2022-08-22T18:01:49.193Z,2.13
2022-08-22T18:04:33.232Z,2.25
2022-08-22T18:07:21.552Z,2.25
2022-08-22T18:09:54.493Z,2.25
2022-08-22T18:12:26.280Z,1.80
2022-08-22T18:14:57.987Z,2.03
2022-08-22T18:17:29.878Z,2.45
2022-08-22T18:20:04.009Z,1.90
2022-08-22T18:22:36.641Z,2.05
2022-08-22T18:25:07.725Z,2.73
2022-08-22T18:27:39.786Z,2.40
2022-08-22T18:30:17.246Z,2.53
2022-08-22T18:32:54.039Z,1.85
2022-08-22T18:35:26.938Z,2.15
2022-08-22T18:38:01.265Z,2.10
2022-08-22T18:40:49.836Z,1.98
2022-08-22T18:43:20.882Z,2.47
2022-08-22T18:46:04.648Z,2.28
2022-08-22T18:48:59.540Z,2.47
2022-08-22T18:51:31.147Z,1.80
2022-08-22T18:54:17.415Z,2.28
2022-08-22T18:56:49.896Z,2.05
2022-08-22T18:59:41.300Z,2.70
2022-08-22T19:02:25.708Z,2.25
2022-08-22T19:05:11.723Z,2.40
2022-08-22T19:08:31.089Z,1.65
2022-08-22T19:11:13.258Z,2.20
2022-08-22T19:14:08.133Z,2.60
2022-08-22T19:17:13.867Z,2.00
2022-08-22T19:19:54.810Z,1.70
2022-08-22T19:22:27.068Z,1.95
2022-08-22T19:25:16.349Z,1.83
2022-08-22T19:27:45.583Z,2.22
2022-08-22T19:30:36.410Z,2.45
2022-08-22T19:33:06.276Z,2.63
2022-08-22T19:35:44.302Z,2.20
2022-08-22T19:38:11.750Z,2.50
2022-08-22T19:40:52.982Z,2.50
2022-08-22T19:43:27.927Z,2.13
2022-08-22T19:45:56.104Z,1.90
2022-08-22T19:48:25.649Z,2.53
2022-08-22T19:51:08.273Z,2.60
2022-08-22T19:53:41.624Z,2.67
2022-08-22T19:56:20.218Z,2.53
2022-08-22T19:59:00.987Z,2.28
2022-08-22T20:01:38.883Z,2.28
2022-08-22T20:04:11.163Z,1.80
2022-08-22T20:06:45.087Z,2.05
2022-08-22T20:09:25.862Z,1.92
2022-08-22T20:12:06.085Z,2.17
2022-08-22T20:14:35.717Z,1.90
2022-08-22T20:17:07.475Z,2.03
2022-08-22T20:19:41.160Z,2.40
2022-08-22T20:22:10.311Z,2.42
2022-08-22T20:24:41.369Z,2.30
2022-08-22T20:27:15.296Z,2.10
2022-08-22T20:29:49.936Z,3.05
2022-08-22T20:32:18.961Z,2.60
2022-08-22T20:34:47.565Z,2.55
2022-08-22T20:37:32.258Z,2.53
2022-08-22T20:40:55.976Z,2.38
2022-08-22T20:43:17.554Z,2.10
2022-08-22T20:46:02.627Z,2.00
2022-08-22T20:48:36.225Z,2.17
2022-08-22T20:51:04.582Z,2.20
2022-08-22T20:53:32.668Z,2.17
2022-08-22T20:55:59.246Z,2.08
2022-08-22T20:58:33.448Z,1.90
2022-08-22T21:01:01.757Z,2.42
2022-08-22T21:03:37.631Z,2.28
2022-08-22T21:06:13.191Z,2.25
2022-08-22T21:08:40.702Z,2.13
2022-08-22T21:11:08.873Z,1.75
2022-08-22T21:13:37.191Z,2.17
2022-08-22T21:16:12.666Z,2.15
2022-08-22T21:18:41.044Z,1.90
2022-08-22T21:21:17.808Z,2.20
2022-08-22T21:23:47.490Z,2.17
2022-08-22T21:26:22.647Z,2.05
2022-08-22T21:28:58.770Z,2.40
2022-08-22T21:31:28.442Z,1.88
2022-08-22T21:33:56.241Z,2.28
2022-08-22T21:36:25.268Z,2.05
2022-08-22T21:38:54.696Z,1.65
2022-08-22T21:41:31.444Z,2.22
2022-08-22T21:44:24.649Z,2.20
2022-08-22T21:46:52.519Z,2.27
2022-08-22T21:49:22.736Z,2.10
2022-08-22T21:51:50.158Z,1.75
2022-08-22T21:54:22.291Z,2.30
2022-08-22T21:56:51.237Z,2.25
2022-08-22T21:59:26.398Z,2.28
2022-08-22T22:02:28.144Z,2.60
2022-08-22T22:04:55.161Z,1.88
2022-08-22T22:07:22.939Z,2.38
2022-08-22T22:09:54.960Z,2.20
2022-08-22T22:12:22.243Z,2.72
2022-08-22T22:14:50.813Z,2.25
2022-08-22T22:17:18.970Z,2.22
2022-08-22T22:19:45.784Z,2.58
2022-08-22T22:22:13.536Z,2.33
2022-08-22T22:24:40.142Z,2.05
2022-08-22T22:27:06.904Z,2.25
2022-08-22T22:29:35.349Z,2.60
2022-08-22T22:32:04.121Z,2.10
2022-08-22T22:34:30.700Z,2.28
2022-08-22T22:36:57.466Z,2.20
2022-08-22T22:39:24.090Z,2.40
2022-08-22T22:41:50.659Z,2.70
2022-08-22T22:44:17.250Z,2.65
2022-08-22T22:46:48.214Z,2.55
2022-08-22T22:49:17.734Z,2.40
2022-08-22T22:51:44.366Z,2.50
2022-08-22T22:54:11.185Z,2.60
2022-08-22T22:56:37.932Z,2.55
2022-08-22T22:59:13.407Z,2.97
2022-08-22T23:02:00.321Z,3.13
2022-08-22T23:04:29.349Z,2.85
2022-08-22T23:06:55.917Z,2.90
2022-08-22T23:09:22.838Z,2.80
2022-08-22T23:11:59.255Z,2.88
2022-08-22T23:14:26.128Z,2.92
2022-08-22T23:16:52.809Z,2.63
2022-08-22T23:19:19.449Z,2.60
2022-08-22T23:21:47.443Z,3.10
2022-08-22T23:24:14.374Z,2.42
2022-08-22T23:26:41.430Z,2.17
2022-08-22T23:29:08.195Z,2.65
2022-08-22T23:31:37.663Z,2.63
2022-08-22T23:34:06.676Z,3.15
2022-08-22T23:36:33.973Z,2.65
2022-08-22T23:39:03.207Z,2.78
2022-08-22T23:41:29.954Z,3.05
2022-08-22T23:43:56.546Z,2.60
2022-08-22T23:46:25.460Z,3.20
2022-08-22T23:48:52.650Z,3.08
2022-08-22T23:51:22.987Z,3.10
2022-08-22T23:53:49.935Z,3.03
2022-08-22T23:56:20.323Z,2.42
2022-08-22T23:58:48.276Z,3.15
